sensor_id;sensor_type;location;lat;lon;timestamp;pressure;altitude;pressure_sealevel;temperature;humidity
45864;BME280;31579;52.354;16.974;2023-02-08T00:00:20;113.3;;;-146.1;100.0
45864;BME280;31579;52.354;16.974;2023-02-08T00:01:24;114.3;;;-146.1;100.0
45864;BME280;31579;52.354;16.974;2023-02-08T00:02:27;113.6;;;-146.1;100.0
45864;BME280;31579;52.354;16.974;2023-02-08T00:03:30;110.4;;;-146.1;100.0
45864;BME280;31579;52.354;16.974;2023-02-08T00:04:33;117.1;;;-146.1;100.0
45864;BME280;31579;52.354;16.974;2023-02-08T00:05:36;114.6;;;-146.1;100.0
45864;BME280;31579;52.354;16.974;2023-02-08T00:06:39;129.4;;;-146.1;100.0
45864;BME280;31579;52.354;16.974;2023-02-08T00:07:42;136.0;;;-146.1;100.0
45864;BME280;31579;52.354;16.974;2023-02-08T00:08:45;132.1;;;-146.1;100.0
45864;BME280;31579;52.354;16.974;2023-02-08T00:09:48;126.4;;;-146.1;100.0
45864;BME280;31579;52.354;16.974;2023-02-08T00:10:51;122.4;;;-146.1;100.0
45864;BME280;31579;52.354;16.974;2023-02-08T00:11:54;121.9;;;-146.1;100.0
45864;BME280;31579;52.354;16.974;2023-02-08T00:12:57;126.4;;;-146.1;100.0
45864;BME280;31579;52.354;16.974;2023-02-08T00:14:00;125.5;;;-146.1;100.0
45864;BME280;31579;52.354;16.974;2023-02-08T00:15:03;125.9;;;-146.1;100.0
45864;BME280;31579;52.354;16.974;2023-02-08T00:16:06;122.7;;;-146.1;100.0
45864;BME280;31579;52.354;16.974;2023-02-08T00:17:09;119.5;;;-146.1;100.0
45864;BME280;31579;52.354;16.974;2023-02-08T00:18:12;128.7;;;-146.1;100.0
45864;BME280;31579;52.354;16.974;2023-02-08T00:19:15;128.4;;;-146.1;100.0
45864;BME280;31579;52.354;16.974;2023-02-08T00:20:18;125.7;;;-146.1;100.0
45864;BME280;31579;52.354;16.974;2023-02-08T00:21:27;110.0;;;-146.1;100.0
45864;BME280;31579;52.354;16.974;2023-02-08T00:22:30;149.2;;;-146.1;100.0
45864;BME280;31579;52.354;16.974;2023-02-08T00:23:33;141.5;;;-146.1;100.0
45864;BME280;31579;52.354;16.974;2023-02-08T00:24:37;128.6;;;-146.1;100.0
45864;BME280;31579;52.354;16.974;2023-02-08T00:25:40;119.0;;;-146.1;100.0
45864;BME280;31579;52.354;16.974;2023-02-08T00:26:44;112.8;;;-146.1;100.0
45864;BME280;31579;52.354;16.974;2023-02-08T00:27:47;104.3;;;-146.1;100.0
45864;BME280;31579;52.354;16.974;2023-02-08T00:28:50;100.3;;;-146.1;100.0
45864;BME280;31579;52.354;16.974;2023-02-08T00:29:53;95.3;;;-146.1;100.0
45864;BME280;31579;52.354;16.974;2023-02-08T00:30:56;94.8;;;-146.1;100.0
45864;BME280;31579;52.354;16.974;2023-02-08T00:31:59;107.3;;;-146.1;100.0
45864;BME280;31579;52.354;16.974;2023-02-08T00:33:03;113.4;;;-146.1;100.0
45864;BME280;31579;52.354;16.974;2023-02-08T00:34:05;119.6;;;-146.1;100.0
45864;BME280;31579;52.354;16.974;2023-02-08T00:35:08;123.4;;;-146.1;100.0
45864;BME280;31579;52.354;16.974;2023-02-08T00:36:11;121.7;;;-146.1;100.0
45864;BME280;31579;52.354;16.974;2023-02-08T00:37:14;115.0;;;-146.1;100.0
45864;BME280;31579;52.354;16.974;2023-02-08T00:38:17;110.0;;;-146.1;100.0
45864;BME280;31579;52.354;16.974;2023-02-08T00:39:20;110.7;;;-146.1;100.0
45864;BME280;31579;52.354;16.974;2023-02-08T00:40:22;45.8;;;-146.1;100.0
45864;BME280;31579;52.354;16.974;2023-02-08T00:41:25;104.1;;;-146.1;100.0
45864;BME280;31579;52.354;16.974;2023-02-08T00:42:29;105.1;;;-146.1;100.0
45864;BME280;31579;52.354;16.974;2023-02-08T00:43:32;109.2;;;-146.1;100.0
45864;BME280;31579;52.354;16.974;2023-02-08T00:44:35;107.6;;;-146.1;100.0
45864;BME280;31579;52.354;16.974;2023-02-08T00:45:38;107.4;;;-146.1;100.0
45864;BME280;31579;52.354;16.974;2023-02-08T00:46:41;103.5;;;-146.1;100.0
45864;BME280;31579;52.354;16.974;2023-02-08T00:47:44;101.5;;;-146.1;100.0
45864;BME280;31579;52.354;16.974;2023-02-08T00:48:47;100.1;;;-146.1;100.0
45864;BME280;31579;52.354;16.974;2023-02-08T00:49:50;96.9;;;-146.1;100.0
45864;BME280;31579;52.354;16.974;2023-02-08T00:51:56;94.1;;;-146.1;100.0
45864;BME280;31579;52.354;16.974;2023-02-08T00:52:59;93.0;;;-146.1;100.0
45864;BME280;31579;52.354;16.974;2023-02-08T00:54:02;91.3;;;-146.1;100.0
45864;BME280;31579;52.354;16.974;2023-02-08T00:55:05;86.1;;;-146.1;100.0
45864;BME280;31579;52.354;16.974;2023-02-08T00:56:09;88.3;;;-146.1;100.0
45864;BME280;31579;52.354;16.974;2023-02-08T00:57:12;88.1;;;-146.1;100.0
45864;BME280;31579;52.354;16.974;2023-02-08T00:58:15;90.1;;;-146.1;100.0
45864;BME280;31579;52.354;16.974;2023-02-08T00:59:18;86.1;;;-146.1;100.0
45864;BME280;31579;52.354;16.974;2023-02-08T01:00:21;83.1;;;-146.1;100.0
45864;BME280;31579;52.354;16.974;2023-02-08T01:01:24;79.1;;;-146.1;100.0
45864;BME280;31579;52.354;16.974;2023-02-08T01:02:27;76.3;;;-146.1;100.0
45864;BME280;31579;52.354;16.974;2023-02-08T01:03:32;78.8;;;-146.1;100.0
45864;BME280;31579;52.354;16.974;2023-02-08T01:04:33;87.4;;;-146.1;100.0
45864;BME280;31579;52.354;16.974;2023-02-08T01:05:37;91.4;;;-146.1;100.0
45864;BME280;31579;52.354;16.974;2023-02-08T01:06:39;97.9;;;-146.1;100.0
45864;BME280;31579;52.354;16.974;2023-02-08T01:07:42;94.1;;;-146.1;100.0
45864;BME280;31579;52.354;16.974;2023-02-08T01:08:45;91.4;;;-146.1;100.0
45864;BME280;31579;52.354;16.974;2023-02-08T01:09:48;92.1;;;-146.1;100.0
45864;BME280;31579;52.354;16.974;2023-02-08T01:10:51;90.8;;;-146.1;100.0
45864;BME280;31579;52.354;16.974;2023-02-08T01:11:54;92.3;;;-146.1;100.0
45864;BME280;31579;52.354;16.974;2023-02-08T01:12:58;91.6;;;-146.1;100.0
45864;BME280;31579;52.354;16.974;2023-02-08T01:14:00;28.1;;;-146.1;100.0
45864;BME280;31579;52.354;16.974;2023-02-08T01:15:03;84.2;;;-146.1;100.0
45864;BME280;31579;52.354;16.974;2023-02-08T01:16:13;87.4;;;-146.1;100.0
45864;BME280;31579;52.354;16.974;2023-02-08T01:17:09;101.5;;;-146.1;100.0
45864;BME280;31579;52.354;16.974;2023-02-08T01:18:12;104.1;;;-146.1;100.0
45864;BME280;31579;52.354;16.974;2023-02-08T01:19:17;110.6;;;-146.1;100.0
45864;BME280;31579;52.354;16.974;2023-02-08T01:20:18;109.1;;;-146.1;100.0
45864;BME280;31579;52.354;16.974;2023-02-08T01:21:24;109.9;;;-146.1;100.0
45864;BME280;31579;52.354;16.974;2023-02-08T01:22:24;114.0;;;-146.1;100.0
45864;BME280;31579;52.354;16.974;2023-02-08T01:23:27;117.6;;;-146.1;100.0
45864;BME280;31579;52.354;16.974;2023-02-08T01:24:30;124.5;;;-146.1;100.0
45864;BME280;31579;52.354;16.974;2023-02-08T01:25:33;129.9;;;-146.1;100.0
45864;BME280;31579;52.354;16.974;2023-02-08T01:26:36;130.8;;;-146.1;100.0
45864;BME280;31579;52.354;16.974;2023-02-08T01:27:40;129.8;;;-146.1;100.0
45864;BME280;31579;52.354;16.974;2023-02-08T01:28:43;137.0;;;-146.1;100.0
45864;BME280;31579;52.354;16.974;2023-02-08T01:29:46;142.3;;;-146.1;100.0
45864;BME280;31579;52.354;16.974;2023-02-08T01:30:49;137.7;;;-146.1;100.0
45864;BME280;31579;52.354;16.974;2023-02-08T01:31:52;133.3;;;-146.1;100.0
45864;BME280;31579;52.354;16.974;2023-02-08T01:32:55;137.0;;;-146.1;100.0
45864;BME280;31579;52.354;16.974;2023-02-08T01:33:59;140.9;;;-146.1;100.0
45864;BME280;31579;52.354;16.974;2023-02-08T01:35:00;70.9;;;-146.1;100.0
45864;BME280;31579;52.354;16.974;2023-02-08T01:36:04;134.5;;;-146.1;100.0
45864;BME280;31579;52.354;16.974;2023-02-08T01:37:07;128.3;;;-146.1;100.0
45864;BME280;31579;52.354;16.974;2023-02-08T01:38:10;126.4;;;-146.1;100.0
45864;BME280;31579;52.354;16.974;2023-02-08T01:39:13;125.6;;;-146.1;100.0
45864;BME280;31579;52.354;16.974;2023-02-08T01:40:16;132.6;;;-146.1;100.0
45864;BME280;31579;52.354;16.974;2023-02-08T01:42:22;142.9;;;-146.1;100.0
45864;BME280;31579;52.354;16.974;2023-02-08T01:43:27;142.0;;;-146.1;100.0
45864;BME280;31579;52.354;16.974;2023-02-08T01:45:32;157.4;;;-146.1;100.0
45864;BME280;31579;52.354;16.974;2023-02-08T01:46:36;159.5;;;-146.1;100.0
45864;BME280;31579;52.354;16.974;2023-02-08T01:47:38;167.2;;;-146.1;100.0
45864;BME280;31579;52.354;16.974;2023-02-08T01:48:41;169.3;;;-146.1;100.0
45864;BME280;31579;52.354;16.974;2023-02-08T01:49:45;162.2;;;-146.1;100.0
45864;BME280;31579;52.354;16.974;2023-02-08T01:51:53;152.6;;;-146.1;100.0
45864;BME280;31579;52.354;16.974;2023-02-08T01:52:54;148.7;;;-146.1;100.0
45864;BME280;31579;52.354;16.974;2023-02-08T01:53:57;147.3;;;-146.1;100.0
45864;BME280;31579;52.354;16.974;2023-02-08T01:55:05;189.7;;;-146.1;100.0
45864;BME280;31579;52.354;16.974;2023-02-08T01:56:05;154.7;;;-146.1;100.0
45864;BME280;31579;52.354;16.974;2023-02-08T01:57:07;157.9;;;-146.1;100.0
45864;BME280;31579;52.354;16.974;2023-02-08T01:58:10;148.0;;;-146.1;100.0
45864;BME280;31579;52.354;16.974;2023-02-08T01:59:16;141.4;;;-146.1;100.0
45864;BME280;31579;52.354;16.974;2023-02-08T02:00:17;132.0;;;-146.1;100.0
45864;BME280;31579;52.354;16.974;2023-02-08T02:01:19;130.9;;;-146.1;100.0
45864;BME280;31579;52.354;16.974;2023-02-08T02:02:22;132.3;;;-146.1;100.0
45864;BME280;31579;52.354;16.974;2023-02-08T02:03:25;129.3;;;-146.1;100.0
45864;BME280;31579;52.354;16.974;2023-02-08T02:04:28;125.3;;;-146.1;100.0
45864;BME280;31579;52.354;16.974;2023-02-08T02:05:33;122.8;;;-146.1;100.0
45864;BME280;31579;52.354;16.974;2023-02-08T02:06:36;130.2;;;-146.1;100.0
45864;BME280;31579;52.354;16.974;2023-02-08T02:07:37;130.3;;;-146.1;100.0
45864;BME280;31579;52.354;16.974;2023-02-08T02:08:41;127.4;;;-146.1;100.0
45864;BME280;31579;52.354;16.974;2023-02-08T02:09:50;133.6;;;-146.1;100.0
45864;BME280;31579;52.354;16.974;2023-02-08T02:10:46;139.5;;;-146.1;100.0
45864;BME280;31579;52.354;16.974;2023-02-08T02:11:49;133.8;;;-146.1;100.0
45864;BME280;31579;52.354;16.974;2023-02-08T02:12:52;138.9;;;-146.1;100.0
45864;BME280;31579;52.354;16.974;2023-02-08T02:13:56;137.5;;;-146.1;100.0
45864;BME280;31579;52.354;16.974;2023-02-08T02:14:58;136.2;;;-146.1;100.0
45864;BME280;31579;52.354;16.974;2023-02-08T02:16:00;55.5;;;-146.1;100.0
45864;BME280;31579;52.354;16.974;2023-02-08T02:17:03;116.4;;;-146.1;100.0
45864;BME280;31579;52.354;16.974;2023-02-08T02:18:06;109.0;;;-146.1;100.0
45864;BME280;31579;52.354;16.974;2023-02-08T02:19:14;114.5;;;-146.1;100.0
45864;BME280;31579;52.354;16.974;2023-02-08T02:20:16;113.5;;;-146.1;100.0
45864;BME280;31579;52.354;16.974;2023-02-08T02:24:36;91.7;;;-146.1;100.0
45864;BME280;31579;52.354;16.974;2023-02-08T02:36:03;120.2;;;-146.1;100.0
45864;BME280;31579;52.354;16.974;2023-02-08T02:39:26;93.3;;;-146.1;100.0
45864;BME280;31579;52.354;16.974;2023-02-08T02:42:23;95.0;;;-146.1;100.0
45864;BME280;31579;52.354;16.974;2023-02-08T02:46:36;84.4;;;-146.1;100.0
45864;BME280;31579;52.354;16.974;2023-02-08T02:50:43;86.3;;;-146.1;100.0
45864;BME280;31579;52.354;16.974;2023-02-08T02:52:55;74.8;;;-146.1;100.0
45864;BME280;31579;52.354;16.974;2023-02-08T02:54:54;77.9;;;-146.1;100.0
45864;BME280;31579;52.354;16.974;2023-02-08T02:55:59;94.5;;;-146.1;100.0
45864;BME280;31579;52.354;16.974;2023-02-08T02:57:02;123.7;;;-146.1;100.0
45864;BME280;31579;52.354;16.974;2023-02-08T02:58:04;104.0;;;-146.1;100.0
45864;BME280;31579;52.354;16.974;2023-02-08T02:59:08;103.9;;;-146.1;100.0
45864;BME280;31579;52.354;16.974;2023-02-08T03:00:11;99.4;;;-146.1;100.0
45864;BME280;31579;52.354;16.974;2023-02-08T03:01:14;106.1;;;-146.1;100.0
45864;BME280;31579;52.354;16.974;2023-02-08T03:02:16;111.2;;;-146.1;100.0
45864;BME280;31579;52.354;16.974;2023-02-08T03:03:21;103.9;;;-146.1;100.0
45864;BME280;31579;52.354;16.974;2023-02-08T03:05:31;34.8;;;-146.1;100.0
45864;BME280;31579;52.354;16.974;2023-02-08T03:11:55;104.4;;;-146.1;100.0
45864;BME280;31579;52.354;16.974;2023-02-08T03:19:19;121.7;;;-146.1;100.0
45864;BME280;31579;52.354;16.974;2023-02-08T03:20:24;123.4;;;-146.1;100.0
45864;BME280;31579;52.354;16.974;2023-02-08T03:23:30;125.8;;;-146.1;100.0
45864;BME280;31579;52.354;16.974;2023-02-08T03:25:39;128.2;;;-146.1;100.0
45864;BME280;31579;52.354;16.974;2023-02-08T03:27:46;131.5;;;-146.1;100.0
45864;BME280;31579;52.354;16.974;2023-02-08T03:29:53;144.2;;;-146.1;100.0
45864;BME280;31579;52.354;16.974;2023-02-08T03:34:04;186.8;;;-146.1;100.0
45864;BME280;31579;52.354;16.974;2023-02-08T03:36:09;129.1;;;-146.1;100.0
45864;BME280;31579;52.354;16.974;2023-02-08T03:37:17;154.5;;;-146.1;100.0
45864;BME280;31579;52.354;16.974;2023-02-08T03:38:15;152.7;;;-146.1;100.0
45864;BME280;31579;52.354;16.974;2023-02-08T03:39:18;153.0;;;-146.1;100.0
45864;BME280;31579;52.354;16.974;2023-02-08T03:40:30;158.2;;;-146.1;100.0
45864;BME280;31579;52.354;16.974;2023-02-08T03:41:25;155.2;;;-146.1;100.0
45864;BME280;31579;52.354;16.974;2023-02-08T03:42:26;150.7;;;-146.1;100.0
45864;BME280;31579;52.354;16.974;2023-02-08T03:43:29;151.9;;;-146.1;100.0
45864;BME280;31579;52.354;16.974;2023-02-08T03:44:32;148.7;;;-146.1;100.0
45864;BME280;31579;52.354;16.974;2023-02-08T03:45:37;145.9;;;-146.1;100.0
45864;BME280;31579;52.354;16.974;2023-02-08T03:46:40;146.0;;;-146.1;100.0
45864;BME280;31579;52.354;16.974;2023-02-08T03:47:41;142.0;;;-146.1;100.0
45864;BME280;31579;52.354;16.974;2023-02-08T03:48:45;148.2;;;-146.1;100.0
45864;BME280;31579;52.354;16.974;2023-02-08T03:49:48;148.3;;;-146.1;100.0
45864;BME280;31579;52.354;16.974;2023-02-08T03:50:51;149.8;;;-146.1;100.0
45864;BME280;31579;52.354;16.974;2023-02-08T03:51:54;150.4;;;-146.1;100.0
45864;BME280;31579;52.354;16.974;2023-02-08T03:52:56;151.5;;;-146.1;100.0
45864;BME280;31579;52.354;16.974;2023-02-08T03:54:00;151.2;;;-146.1;100.0
45864;BME280;31579;52.354;16.974;2023-02-08T03:55:04;184.8;;;-146.1;100.0
45864;BME280;31579;52.354;16.974;2023-02-08T03:56:14;110.5;;;-146.1;100.0
45864;BME280;31579;52.354;16.974;2023-02-08T03:57:18;192.8;;;-146.1;100.0
45864;BME280;31579;52.354;16.974;2023-02-08T03:59:26;179.7;;;-146.1;100.0
45864;BME280;31579;52.354;16.974;2023-02-08T04:00:25;175.6;;;-146.1;100.0
45864;BME280;31579;52.354;16.974;2023-02-08T04:01:29;171.1;;;-146.1;100.0
45864;BME280;31579;52.354;16.974;2023-02-08T04:02:32;176.8;;;-146.1;100.0
45864;BME280;31579;52.354;16.974;2023-02-08T04:03:34;182.0;;;-146.1;100.0
45864;BME280;31579;52.354;16.974;2023-02-08T04:04:41;182.9;;;-146.1;100.0
45864;BME280;31579;52.354;16.974;2023-02-08T04:05:40;182.3;;;-146.1;100.0
45864;BME280;31579;52.354;16.974;2023-02-08T04:06:43;181.7;;;-146.1;100.0
45864;BME280;31579;52.354;16.974;2023-02-08T04:07:47;183.3;;;-146.1;100.0
45864;BME280;31579;52.354;16.974;2023-02-08T04:08:50;184.4;;;-146.1;100.0
45864;BME280;31579;52.354;16.974;2023-02-08T04:09:53;191.9;;;-146.1;100.0
45864;BME280;31579;52.354;16.974;2023-02-08T04:10:56;195.7;;;-146.1;100.0
45864;BME280;31579;52.354;16.974;2023-02-08T04:11:59;197.0;;;-146.1;100.0
45864;BME280;31579;52.354;16.974;2023-02-08T04:13:02;195.0;;;-146.1;100.0
45864;BME280;31579;52.354;16.974;2023-02-08T04:14:05;189.6;;;-146.1;100.0
45864;BME280;31579;52.354;16.974;2023-02-08T04:15:08;186.2;;;-146.1;100.0
45864;BME280;31579;52.354;16.974;2023-02-08T04:16:10;103.5;;;-146.1;100.0
45864;BME280;31579;52.354;16.974;2023-02-08T04:17:13;170.3;;;-146.1;100.0
45864;BME280;31579;52.354;16.974;2023-02-08T04:18:16;166.5;;;-146.1;100.0
45864;BME280;31579;52.354;16.974;2023-02-08T04:19:19;168.0;;;-146.1;100.0
45864;BME280;31579;52.354;16.974;2023-02-08T04:20:22;169.7;;;-146.1;100.0
45864;BME280;31579;52.354;16.974;2023-02-08T04:21:25;178.3;;;-146.1;100.0
45864;BME280;31579;52.354;16.974;2023-02-08T04:22:28;182.6;;;-146.1;100.0
45864;BME280;31579;52.354;16.974;2023-02-08T04:23:31;177.8;;;-146.1;100.0
45864;BME280;31579;52.354;16.974;2023-02-08T04:24:34;170.5;;;-146.1;100.0
45864;BME280;31579;52.354;16.974;2023-02-08T04:25:37;167.6;;;-146.1;100.0
45864;BME280;31579;52.354;16.974;2023-02-08T04:26:40;164.8;;;-146.1;100.0
45864;BME280;31579;52.354;16.974;2023-02-08T04:27:43;161.0;;;-146.1;100.0
45864;BME280;31579;52.354;16.974;2023-02-08T04:28:46;157.2;;;-146.1;100.0
45864;BME280;31579;52.354;16.974;2023-02-08T04:29:49;158.4;;;-146.1;100.0
45864;BME280;31579;52.354;16.974;2023-02-08T04:30:55;170.3;;;-146.1;100.0
45864;BME280;31579;52.354;16.974;2023-02-08T04:31:55;181.5;;;-146.1;100.0
45864;BME280;31579;52.354;16.974;2023-02-08T04:32:58;179.3;;;-146.1;100.0
45864;BME280;31579;52.354;16.974;2023-02-08T04:34:00;109.6;;;-146.1;100.0
45864;BME280;31579;52.354;16.974;2023-02-08T04:35:05;168.0;;;-146.1;100.0
45864;BME280;31579;52.354;16.974;2023-02-08T04:36:07;173.5;;;-146.1;100.0
45864;BME280;31579;52.354;16.974;2023-02-08T04:37:10;178.1;;;-146.1;100.0
45864;BME280;31579;52.354;16.974;2023-02-08T04:38:13;182.3;;;-146.1;100.0
45864;BME280;31579;52.354;16.974;2023-02-08T04:39:16;195.9;;;-146.1;100.0
45864;BME280;31579;52.354;16.974;2023-02-08T04:40:19;199.5;;;-146.1;100.0
45864;BME280;31579;52.354;16.974;2023-02-08T04:41:22;202.1;;;-146.1;100.0
45864;BME280;31579;52.354;16.974;2023-02-08T04:42:25;209.2;;;-146.1;100.0
45864;BME280;31579;52.354;16.974;2023-02-08T04:43:28;208.5;;;-146.1;100.0
45864;BME280;31579;52.354;16.974;2023-02-08T04:44:31;215.9;;;-146.1;100.0
45864;BME280;31579;52.354;16.974;2023-02-08T04:45:34;220.4;;;-146.1;100.0
45864;BME280;31579;52.354;16.974;2023-02-08T04:46:37;229.2;;;-146.1;100.0
45864;BME280;31579;52.354;16.974;2023-02-08T04:47:40;227.0;;;-146.1;100.0
45864;BME280;31579;52.354;16.974;2023-02-08T04:48:44;224.5;;;-146.1;100.0
45864;BME280;31579;52.354;16.974;2023-02-08T04:49:47;223.5;;;-146.1;100.0
45864;BME280;31579;52.354;16.974;2023-02-08T04:50:53;222.5;;;-146.1;100.0
45864;BME280;31579;52.354;16.974;2023-02-08T04:51:53;225.8;;;-146.1;100.0
45864;BME280;31579;52.354;16.974;2023-02-08T04:52:56;230.0;;;-146.1;100.0
45864;BME280;31579;52.354;16.974;2023-02-08T04:53:59;233.6;;;-146.1;100.0
45864;BME280;31579;52.354;16.974;2023-02-08T04:55:08;162.9;;;-146.1;100.0
45864;BME280;31579;52.354;16.974;2023-02-08T04:56:11;263.1;;;-146.1;100.0
45864;BME280;31579;52.354;16.974;2023-02-08T04:57:14;258.8;;;-146.1;100.0
45864;BME280;31579;52.354;16.974;2023-02-08T04:58:17;259.3;;;-146.1;100.0
45864;BME280;31579;52.354;16.974;2023-02-08T04:59:20;253.5;;;-146.1;100.0
45864;BME280;31579;52.354;16.974;2023-02-08T05:00:23;251.3;;;-146.1;100.0
45864;BME280;31579;52.354;16.974;2023-02-08T05:01:26;250.0;;;-146.1;100.0
45864;BME280;31579;52.354;16.974;2023-02-08T05:02:29;252.9;;;-146.1;100.0
45864;BME280;31579;52.354;16.974;2023-02-08T05:03:33;258.2;;;-146.1;100.0
45864;BME280;31579;52.354;16.974;2023-02-08T05:04:36;267.8;;;-146.1;100.0
45864;BME280;31579;52.354;16.974;2023-02-08T05:05:40;272.9;;;-146.1;100.0
45864;BME280;31579;52.354;16.974;2023-02-08T05:06:43;276.3;;;-146.1;100.0
45864;BME280;31579;52.354;16.974;2023-02-08T05:07:46;285.9;;;-146.1;100.0
45864;BME280;31579;52.354;16.974;2023-02-08T05:08:49;292.5;;;-146.1;100.0
45864;BME280;31579;52.354;16.974;2023-02-08T05:09:52;296.2;;;-146.1;100.0
45864;BME280;31579;52.354;16.974;2023-02-08T05:10:55;290.9;;;-146.1;100.0
45864;BME280;31579;52.354;16.974;2023-02-08T05:11:58;295.4;;;-146.1;100.0
45864;BME280;31579;52.354;16.974;2023-02-08T05:13:00;204.1;;;-146.1;100.0
45864;BME280;31579;52.354;16.974;2023-02-08T05:14:04;279.2;;;-146.1;100.0
45864;BME280;31579;52.354;16.974;2023-02-08T05:15:07;168.6;;;-146.1;100.0
45864;BME280;31579;52.354;16.974;2023-02-08T05:16:09;272.7;;;-146.1;100.0
45864;BME280;31579;52.354;16.974;2023-02-08T05:17:12;278.6;;;-146.1;100.0
45864;BME280;31579;52.354;16.974;2023-02-08T05:18:15;285.9;;;-146.1;100.0
45864;BME280;31579;52.354;16.974;2023-02-08T05:19:18;295.9;;;-146.1;100.0
45864;BME280;31579;52.354;16.974;2023-02-08T05:20:21;302.1;;;-146.1;100.0
45864;BME280;31579;52.354;16.974;2023-02-08T05:21:24;306.2;;;-146.1;100.0
45864;BME280;31579;52.354;16.974;2023-02-08T05:22:27;313.1;;;-146.1;100.0
45864;BME280;31579;52.354;16.974;2023-02-08T05:23:30;312.1;;;-146.1;100.0
45864;BME280;31579;52.354;16.974;2023-02-08T05:24:33;315.7;;;-146.1;100.0
45864;BME280;31579;52.354;16.974;2023-02-08T05:25:37;315.0;;;-146.1;100.0
45864;BME280;31579;52.354;16.974;2023-02-08T05:26:40;318.1;;;-146.1;100.0
45864;BME280;31579;52.354;16.974;2023-02-08T05:27:42;321.4;;;-146.1;100.0
45864;BME280;31579;52.354;16.974;2023-02-08T05:28:45;320.9;;;-146.1;100.0
45864;BME280;31579;52.354;16.974;2023-02-08T05:29:48;325.1;;;-146.1;100.0
45864;BME280;31579;52.354;16.974;2023-02-08T05:30:51;332.2;;;-146.1;100.0
45864;BME280;31579;52.354;16.974;2023-02-08T05:31:54;327.3;;;-146.1;100.0
45864;BME280;31579;52.354;16.974;2023-02-08T05:32:57;328.3;;;-146.1;100.0
45864;BME280;31579;52.354;16.974;2023-02-08T05:34:01;388.3;;;-146.1;100.0
45864;BME280;31579;52.354;16.974;2023-02-08T05:35:06;350.9;;;-146.1;100.0
45864;BME280;31579;52.354;16.974;2023-02-08T05:36:17;346.1;;;-146.1;100.0
45864;BME280;31579;52.354;16.974;2023-02-08T05:37:19;373.2;;;-146.1;100.0
45864;BME280;31579;52.354;16.974;2023-02-08T05:38:22;368.8;;;-146.1;100.0
45864;BME280;31579;52.354;16.974;2023-02-08T05:39:25;358.4;;;-146.1;100.0
45864;BME280;31579;52.354;16.974;2023-02-08T05:40:30;354.4;;;-146.1;100.0
45864;BME280;31579;52.354;16.974;2023-02-08T05:41:31;345.2;;;-146.1;100.0
45864;BME280;31579;52.354;16.974;2023-02-08T05:42:34;339.9;;;-146.1;100.0
45864;BME280;31579;52.354;16.974;2023-02-08T05:43:37;331.1;;;-146.1;100.0
45864;BME280;31579;52.354;16.974;2023-02-08T05:44:40;323.3;;;-146.1;100.0
45864;BME280;31579;52.354;16.974;2023-02-08T05:45:43;321.1;;;-146.1;100.0
45864;BME280;31579;52.354;16.974;2023-02-08T05:46:47;320.1;;;-146.1;100.0
45864;BME280;31579;52.354;16.974;2023-02-08T05:47:50;327.9;;;-146.1;100.0
45864;BME280;31579;52.354;16.974;2023-02-08T05:48:54;331.6;;;-146.1;100.0
45864;BME280;31579;52.354;16.974;2023-02-08T05:49:56;335.6;;;-146.1;100.0
45864;BME280;31579;52.354;16.974;2023-02-08T05:50:59;338.5;;;-146.1;100.0
45864;BME280;31579;52.354;16.974;2023-02-08T05:52:03;343.7;;;-146.1;100.0
45864;BME280;31579;52.354;16.974;2023-02-08T05:53:06;345.9;;;-146.1;100.0
45864;BME280;31579;52.354;16.974;2023-02-08T05:54:08;356.0;;;-146.1;100.0
45864;BME280;31579;52.354;16.974;2023-02-08T05:55:10;264.5;;;-146.1;100.0
45864;BME280;31579;52.354;16.974;2023-02-08T05:56:13;345.7;;;-146.1;100.0
45864;BME280;31579;52.354;16.974;2023-02-08T05:57:16;351.7;;;-146.1;100.0
45864;BME280;31579;52.354;16.974;2023-02-08T05:58:19;353.9;;;-146.1;100.0
45864;BME280;31579;52.354;16.974;2023-02-08T05:59:23;360.6;;;-146.1;100.0
45864;BME280;31579;52.354;16.974;2023-02-08T06:00:25;361.7;;;-146.1;100.0
45864;BME280;31579;52.354;16.974;2023-02-08T06:01:29;364.7;;;-146.1;100.0
45864;BME280;31579;52.354;16.974;2023-02-08T06:02:31;363.0;;;-146.1;100.0
45864;BME280;31579;52.354;16.974;2023-02-08T06:03:35;362.2;;;-146.1;100.0
45864;BME280;31579;52.354;16.974;2023-02-08T06:04:37;359.3;;;-146.1;100.0
45864;BME280;31579;52.354;16.974;2023-02-08T06:05:40;368.9;;;-146.1;100.0
45864;BME280;31579;52.354;16.974;2023-02-08T06:06:43;372.5;;;-146.1;100.0
45864;BME280;31579;52.354;16.974;2023-02-08T06:07:46;376.0;;;-146.1;100.0
45864;BME280;31579;52.354;16.974;2023-02-08T06:08:49;372.3;;;-146.1;100.0
45864;BME280;31579;52.354;16.974;2023-02-08T06:09:52;369.6;;;-146.1;100.0
45864;BME280;31579;52.354;16.974;2023-02-08T06:10:55;367.8;;;-146.1;100.0
45864;BME280;31579;52.354;16.974;2023-02-08T06:11:26;388.7;;;-146.1;100.0
45864;BME280;31579;52.354;16.974;2023-02-08T06:12:29;388.3;;;-146.1;100.0
45864;BME280;31579;52.354;16.974;2023-02-08T06:13:32;380.6;;;-146.1;100.0
45864;BME280;31579;52.354;16.974;2023-02-08T06:14:35;370.7;;;-146.1;100.0
45864;BME280;31579;52.354;16.974;2023-02-08T06:15:38;367.0;;;-146.1;100.0
45864;BME280;31579;52.354;16.974;2023-02-08T06:16:41;365.9;;;-146.1;100.0
45864;BME280;31579;52.354;16.974;2023-02-08T06:17:44;363.9;;;-146.1;100.0
45864;BME280;31579;52.354;16.974;2023-02-08T06:18:47;359.7;;;-146.1;100.0
45864;BME280;31579;52.354;16.974;2023-02-08T06:19:50;367.2;;;-146.1;100.0
45864;BME280;31579;52.354;16.974;2023-02-08T06:20:53;364.6;;;-146.1;100.0
45864;BME280;31579;52.354;16.974;2023-02-08T06:21:56;359.7;;;-146.1;100.0
45864;BME280;31579;52.354;16.974;2023-02-08T06:22:59;358.6;;;-146.1;100.0
45864;BME280;31579;52.354;16.974;2023-02-08T06:24:07;293.6;;;-146.1;100.0
45864;BME280;31579;52.354;16.974;2023-02-08T06:25:10;361.8;;;-146.1;100.0
45864;BME280;31579;52.354;16.974;2023-02-08T06:26:14;354.2;;;-146.1;100.0
45864;BME280;31579;52.354;16.974;2023-02-08T06:27:18;360.9;;;-146.1;100.0
45864;BME280;31579;52.354;16.974;2023-02-08T06:28:21;359.1;;;-146.1;100.0
45864;BME280;31579;52.354;16.974;2023-02-08T06:29:24;356.6;;;-146.1;100.0
45864;BME280;31579;52.354;16.974;2023-02-08T06:30:27;357.0;;;-146.1;100.0
45864;BME280;31579;52.354;16.974;2023-02-08T06:31:30;359.3;;;-146.1;100.0
45864;BME280;31579;52.354;16.974;2023-02-08T06:32:33;359.5;;;-146.1;100.0